sensor_id;sensor_type;location;lat;lon;timestamp;pressure;altitude;pressure_sealevel;temperature;humidity
45285;BME280;31026;43.780;25.948;2023-08-08T00:01:19;100568.41;;;24.60;57.85
45285;BME280;31026;43.780;25.948;2023-08-08T00:03:47;100572.66;;;24.54;57.83
45285;BME280;31026;43.780;25.948;2023-08-08T00:06:16;100576.50;;;24.60;57.50
45285;BME280;31026;43.780;25.948;2023-08-08T00:08:44;100577.72;;;24.57;57.61
45285;BME280;31026;43.780;25.948;2023-08-08T00:11:12;100577.84;;;24.64;57.49
45285;BME280;31026;43.780;25.948;2023-08-08T00:13:40;100574.63;;;24.60;57.04
45285;BME280;31026;43.780;25.948;2023-08-08T00:16:11;100583.13;;;24.57;57.46
45285;BME280;31026;43.780;25.948;2023-08-08T00:18:39;100595.25;;;24.61;57.09
45285;BME280;31026;43.780;25.948;2023-08-08T00:21:08;100595.25;;;24.61;57.30
45285;BME280;31026;43.780;25.948;2023-08-08T00:23:36;100614.91;;;24.47;57.50
45285;BME280;31026;43.780;25.948;2023-08-08T00:26:04;100598.59;;;24.24;58.23
45285;BME280;31026;43.780;25.948;2023-08-08T00:28:32;100581.88;;;24.20;58.30
45285;BME280;31026;43.780;25.948;2023-08-08T00:31:01;100595.03;;;24.32;57.60
45285;BME280;31026;43.780;25.948;2023-08-08T00:33:32;100587.59;;;24.34;57.78
45285;BME280;31026;43.780;25.948;2023-08-08T00:36:00;100608.13;;;24.43;57.25
45285;BME280;31026;43.780;25.948;2023-08-08T00:38:28;100590.13;;;24.35;56.96
45285;BME280;31026;43.780;25.948;2023-08-08T00:40:56;100585.59;;;24.28;57.11
45285;BME280;31026;43.780;25.948;2023-08-08T00:43:25;100597.41;;;24.27;56.52
45285;BME280;31026;43.780;25.948;2023-08-08T00:45:53;100582.72;;;24.29;56.42
45285;BME280;31026;43.780;25.948;2023-08-08T00:48:21;100571.59;;;24.16;57.51
45285;BME280;31026;43.780;25.948;2023-08-08T00:50:52;100561.59;;;24.25;57.26
45285;BME280;31026;43.780;25.948;2023-08-08T00:53:21;100577.47;;;24.28;56.76
45285;BME280;31026;43.780;25.948;2023-08-08T00:55:51;100572.88;;;24.36;56.56
45285;BME280;31026;43.780;25.948;2023-08-08T00:58:19;100577.44;;;24.36;56.46
45285;BME280;31026;43.780;25.948;2023-08-08T01:00:48;100579.84;;;24.22;56.62
45285;BME280;31026;43.780;25.948;2023-08-08T01:03:17;100614.00;;;24.15;56.64
45285;BME280;31026;43.780;25.948;2023-08-08T01:05:47;100592.03;;;24.18;56.50
45285;BME280;31026;43.780;25.948;2023-08-08T01:08:19;100578.72;;;24.09;56.98
45285;BME280;31026;43.780;25.948;2023-08-08T01:10:50;100585.94;;;24.16;56.52
45285;BME280;31026;43.780;25.948;2023-08-08T01:13:20;100595.75;;;24.17;56.59
45285;BME280;31026;43.780;25.948;2023-08-08T01:15:49;100603.19;;;24.07;57.12
45285;BME280;31026;43.780;25.948;2023-08-08T01:18:18;100598.47;;;24.01;56.73
45285;BME280;31026;43.780;25.948;2023-08-08T01:20:47;100613.31;;;24.05;56.30
45285;BME280;31026;43.780;25.948;2023-08-08T01:23:16;100610.78;;;24.12;56.36
45285;BME280;31026;43.780;25.948;2023-08-08T01:25:49;100612.81;;;24.10;56.23
45285;BME280;31026;43.780;25.948;2023-08-08T01:28:20;100625.50;;;24.01;56.49
45285;BME280;31026;43.780;25.948;2023-08-08T01:30:49;100626.84;;;24.13;56.00
45285;BME280;31026;43.780;25.948;2023-08-08T01:33:17;100646.91;;;24.11;56.39
45285;BME280;31026;43.780;25.948;2023-08-08T01:35:46;100644.06;;;24.12;56.55
45285;BME280;31026;43.780;25.948;2023-08-08T01:38:17;100649.31;;;23.97;56.75
45285;BME280;31026;43.780;25.948;2023-08-08T01:40:50;100663.84;;;23.88;56.97
45285;BME280;31026;43.780;25.948;2023-08-08T01:43:18;100654.88;;;23.96;57.06
45285;BME280;31026;43.780;25.948;2023-08-08T01:45:48;100654.53;;;23.99;56.62
45285;BME280;31026;43.780;25.948;2023-08-08T01:48:16;100670.06;;;24.05;56.96
45285;BME280;31026;43.780;25.948;2023-08-08T01:50:45;100669.56;;;23.85;57.06
45285;BME280;31026;43.780;25.948;2023-08-08T01:53:13;100675.31;;;23.82;57.43
45285;BME280;31026;43.780;25.948;2023-08-08T01:55:41;100676.66;;;23.86;57.04
45285;BME280;31026;43.780;25.948;2023-08-08T01:58:12;100700.97;;;23.78;57.47
45285;BME280;31026;43.780;25.948;2023-08-08T02:00:40;100693.34;;;23.65;57.60
45285;BME280;31026;43.780;25.948;2023-08-08T02:03:10;100708.38;;;23.76;57.20
45285;BME280;31026;43.780;25.948;2023-08-08T02:05:38;100697.75;;;23.91;57.02
45285;BME280;31026;43.780;25.948;2023-08-08T02:08:06;100685.94;;;24.08;56.46
45285;BME280;31026;43.780;25.948;2023-08-08T02:10:35;100687.59;;;24.26;56.18
45285;BME280;31026;43.780;25.948;2023-08-08T02:13:03;100681.13;;;24.35;56.10
45285;BME280;31026;43.780;25.948;2023-08-08T02:15:34;100693.47;;;24.46;56.59
45285;BME280;31026;43.780;25.948;2023-08-08T02:18:03;100682.16;;;24.42;56.51
45285;BME280;31026;43.780;25.948;2023-08-08T02:20:32;100693.63;;;24.44;56.21
45285;BME280;31026;43.780;25.948;2023-08-08T02:23:01;100680.81;;;24.38;56.64
45285;BME280;31026;43.780;25.948;2023-08-08T02:25:29;100683.16;;;24.41;56.59
45285;BME280;31026;43.780;25.948;2023-08-08T02:27:57;100670.00;;;24.38;56.22
45285;BME280;31026;43.780;25.948;2023-08-08T02:30:26;100681.44;;;24.48;56.41
45285;BME280;31026;43.780;25.948;2023-08-08T02:32:57;100657.81;;;24.42;56.31
45285;BME280;31026;43.780;25.948;2023-08-08T02:35:25;100667.78;;;24.41;56.07
45285;BME280;31026;43.780;25.948;2023-08-08T02:37:53;100670.66;;;24.40;56.17
45285;BME280;31026;43.780;25.948;2023-08-08T02:40:22;100654.44;;;24.40;55.70
45285;BME280;31026;43.780;25.948;2023-08-08T02:42:52;100674.56;;;24.37;56.14
45285;BME280;31026;43.780;25.948;2023-08-08T02:45:20;100667.97;;;24.40;56.16
45285;BME280;31026;43.780;25.948;2023-08-08T02:47:48;100691.75;;;24.45;55.93
45285;BME280;31026;43.780;25.948;2023-08-08T02:50:19;100680.81;;;24.38;55.61
45285;BME280;31026;43.780;25.948;2023-08-08T02:52:47;100689.56;;;24.48;55.44
45285;BME280;31026;43.780;25.948;2023-08-08T02:55:17;100674.19;;;24.40;55.92
45285;BME280;31026;43.780;25.948;2023-08-08T02:57:45;100670.00;;;24.38;55.47
45285;BME280;31026;43.780;25.948;2023-08-08T03:00:13;100664.41;;;24.39;56.12
45285;BME280;31026;43.780;25.948;2023-08-08T03:02:42;100669.28;;;24.44;55.90
45285;BME280;31026;43.780;25.948;2023-08-08T03:05:10;100678.59;;;24.41;56.00
45285;BME280;31026;43.780;25.948;2023-08-08T03:07:41;100689.06;;;24.45;56.26
45285;BME280;31026;43.780;25.948;2023-08-08T03:10:09;100683.16;;;24.49;55.92
45285;BME280;31026;43.780;25.948;2023-08-08T03:12:38;100700.19;;;24.50;56.00
45285;BME280;31026;43.780;25.948;2023-08-08T03:15:07;100697.84;;;24.47;55.95
45285;BME280;31026;43.780;25.948;2023-08-08T03:17:36;100718.28;;;24.49;56.29
45285;BME280;31026;43.780;25.948;2023-08-08T03:20:04;100705.44;;;24.43;55.98
45285;BME280;31026;43.780;25.948;2023-08-08T03:22:33;100720.69;;;24.36;56.40
45285;BME280;31026;43.780;25.948;2023-08-08T03:25:04;100711.22;;;24.40;56.45
45285;BME280;31026;43.780;25.948;2023-08-08T03:27:33;100717.63;;;24.47;56.21
45285;BME280;31026;43.780;25.948;2023-08-08T03:30:01;100720.66;;;24.44;55.64
45285;BME280;31026;43.780;25.948;2023-08-08T03:32:30;100707.00;;;24.37;56.16
45285;BME280;31026;43.780;25.948;2023-08-08T03:34:58;100713.25;;;24.38;55.59
45285;BME280;31026;43.780;25.948;2023-08-08T03:37:29;100706.81;;;24.31;56.02
45285;BME280;31026;43.780;25.948;2023-08-08T03:39:58;100715.13;;;24.29;56.04
45285;BME280;31026;43.780;25.948;2023-08-08T03:42:29;100729.13;;;24.33;56.20
45285;BME280;31026;43.780;25.948;2023-08-08T03:44:57;100732.69;;;24.33;55.89
45285;BME280;31026;43.780;25.948;2023-08-08T03:47:25;100736.91;;;24.36;55.92
45285;BME280;31026;43.780;25.948;2023-08-08T03:49:54;100747.00;;;24.42;55.61
45285;BME280;31026;43.780;25.948;2023-08-08T03:52:23;100736.22;;;24.34;55.87
45285;BME280;31026;43.780;25.948;2023-08-08T03:54:51;100744.34;;;24.34;55.78
45285;BME280;31026;43.780;25.948;2023-08-08T03:57:20;100747.56;;;24.29;55.71
45285;BME280;31026;43.780;25.948;2023-08-08T03:59:51;100752.97;;;24.29;55.91
45285;BME280;31026;43.780;25.948;2023-08-08T04:02:19;100739.22;;;24.39;55.95
45285;BME280;31026;43.780;25.948;2023-08-08T04:04:47;100739.63;;;24.19;55.71
45285;BME280;31026;43.780;25.948;2023-08-08T04:07:15;100762.09;;;24.12;55.61
45285;BME280;31026;43.780;25.948;2023-08-08T04:09:44;100751.09;;;24.05;55.96
45285;BME280;31026;43.780;25.948;2023-08-08T04:12:12;100745.38;;;23.92;55.81
45285;BME280;31026;43.780;25.948;2023-08-08T04:14:40;100747.41;;;23.81;56.07
45285;BME280;31026;43.780;25.948;2023-08-08T04:17:11;100764.59;;;23.80;55.94
45285;BME280;31026;43.780;25.948;2023-08-08T04:19:39;100758.53;;;23.87;55.99
45285;BME280;31026;43.780;25.948;2023-08-08T04:22:08;100778.09;;;23.89;55.82
45285;BME280;31026;43.780;25.948;2023-08-08T04:24:36;100779.09;;;23.79;55.85
45285;BME280;31026;43.780;25.948;2023-08-08T04:27:04;100771.72;;;23.90;55.48
45285;BME280;31026;43.780;25.948;2023-08-08T04:29:33;100772.03;;;23.78;55.72
45285;BME280;31026;43.780;25.948;2023-08-08T04:32:01;100772.31;;;23.75;55.75
45285;BME280;31026;43.780;25.948;2023-08-08T04:34:32;100782.28;;;23.75;55.58
45285;BME280;31026;43.780;25.948;2023-08-08T04:37:00;100796.28;;;23.70;55.92
45285;BME280;31026;43.780;25.948;2023-08-08T04:39:29;100796.69;;;23.92;55.24
45285;BME280;31026;43.780;25.948;2023-08-08T04:41:57;100774.06;;;23.93;55.46
45285;BME280;31026;43.780;25.948;2023-08-08T04:44:25;100775.41;;;23.89;55.37
45285;BME280;31026;43.780;25.948;2023-08-08T04:46:53;100790.78;;;23.88;55.49
45285;BME280;31026;43.780;25.948;2023-08-08T04:49:22;100800.22;;;23.84;55.32
45285;BME280;31026;43.780;25.948;2023-08-08T04:51:52;100788.75;;;23.90;55.56
45285;BME280;31026;43.780;25.948;2023-08-08T04:54:21;100784.53;;;23.88;55.60
45285;BME280;31026;43.780;25.948;2023-08-08T04:56:49;100804.13;;;23.90;55.02
45285;BME280;31026;43.780;25.948;2023-08-08T04:59:17;100820.31;;;23.98;55.06
45285;BME280;31026;43.780;25.948;2023-08-08T05:01:46;100818.41;;;23.74;55.41
45285;BME280;31026;43.780;25.948;2023-08-08T05:04:14;100825.16;;;23.70;55.77
45285;BME280;31026;43.780;25.948;2023-08-08T05:06:42;100811.34;;;23.81;55.70
45285;BME280;31026;43.780;25.948;2023-08-08T05:09:14;100819.97;;;24.01;55.29
45285;BME280;31026;43.780;25.948;2023-08-08T05:11:42;100830.09;;;23.91;55.20
45285;BME280;31026;43.780;25.948;2023-08-08T05:14:10;100828.34;;;23.73;55.93
45285;BME280;31026;43.780;25.948;2023-08-08T05:16:38;100827.06;;;23.86;55.39
45285;BME280;31026;43.780;25.948;2023-08-08T05:19:07;100826.03;;;23.87;55.30
45285;BME280;31026;43.780;25.948;2023-08-08T05:21:35;100826.56;;;23.98;54.98
45285;BME280;31026;43.780;25.948;2023-08-08T05:24:03;100847.34;;;24.14;55.11
45285;BME280;31026;43.780;25.948;2023-08-08T05:26:35;100836.53;;;24.22;54.81
45285;BME280;31026;43.780;25.948;2023-08-08T05:29:03;100832.84;;;24.15;55.11
45285;BME280;31026;43.780;25.948;2023-08-08T05:31:32;100830.47;;;24.12;55.07
45285;BME280;31026;43.780;25.948;2023-08-08T05:34:00;100824.06;;;24.13;54.98
45285;BME280;31026;43.780;25.948;2023-08-08T05:36:28;100820.34;;;24.14;54.82
45285;BME280;31026;43.780;25.948;2023-08-08T05:38:57;100845.69;;;24.13;55.07
45285;BME280;31026;43.780;25.948;2023-08-08T05:41:25;100851.72;;;24.07;55.17
45285;BME280;31026;43.780;25.948;2023-08-08T05:43:56;100851.72;;;23.91;55.54
45285;BME280;31026;43.780;25.948;2023-08-08T05:46:24;100858.84;;;24.08;56.07
45285;BME280;31026;43.780;25.948;2023-08-08T05:48:52;100849.03;;;24.07;56.75
45285;BME280;31026;43.780;25.948;2023-08-08T05:51:21;100866.78;;;24.18;55.55
45285;BME280;31026;43.780;25.948;2023-08-08T05:53:49;100861.03;;;24.21;55.54
45285;BME280;31026;43.780;25.948;2023-08-08T05:56:17;100837.91;;;24.18;55.95
45285;BME280;31026;43.780;25.948;2023-08-08T05:58:46;100823.53;;;24.26;56.82
45285;BME280;31026;43.780;25.948;2023-08-08T06:01:16;100849.38;;;24.29;56.87
45285;BME280;31026;43.780;25.948;2023-08-08T06:03:45;100886.53;;;24.35;56.44
45285;BME280;31026;43.780;25.948;2023-08-08T06:06:13;100876.06;;;24.15;56.73
45285;BME280;31026;43.780;25.948;2023-08-08T06:08:41;100872.34;;;24.08;55.95
45285;BME280;31026;43.780;25.948;2023-08-08T06:11:10;100879.75;;;24.06;56.30
45285;BME280;31026;43.780;25.948;2023-08-08T06:13:38;100816.84;;;23.63;55.87
45285;BME280;31026;43.780;25.948;2023-08-08T06:16:06;100894.47;;;24.04;55.98
45285;BME280;31026;43.780;25.948;2023-08-08T06:18:37;100905.41;;;23.94;56.13
45285;BME280;31026;43.780;25.948;2023-08-08T06:21:05;100911.13;;;23.91;56.08
45285;BME280;31026;43.780;25.948;2023-08-08T06:23:34;100896.53;;;23.75;56.35
45285;BME280;31026;43.780;25.948;2023-08-08T06:26:02;100911.69;;;23.68;56.58
45285;BME280;31026;43.780;25.948;2023-08-08T06:28:30;100904.78;;;23.66;56.33
45285;BME280;31026;43.780;25.948;2023-08-08T06:30:58;100901.75;;;23.69;56.36
45285;BME280;31026;43.780;25.948;2023-08-08T06:33:27;100907.56;;;23.82;56.35
45285;BME280;31026;43.780;25.948;2023-08-08T06:35:58;100908.31;;;23.66;56.36
45285;BME280;31026;43.780;25.948;2023-08-08T06:38:26;100934.63;;;23.64;56.46
45285;BME280;31026;43.780;25.948;2023-08-08T06:40:58;100915.94;;;23.71;56.24
45285;BME280;31026;43.780;25.948;2023-08-08T06:43:27;100917.78;;;23.70;56.28
45285;BME280;31026;43.780;25.948;2023-08-08T06:45:55;100902.09;;;23.66;56.05
45285;BME280;31026;43.780;25.948;2023-08-08T06:48:24;100909.22;;;23.40;56.84
45285;BME280;31026;43.780;25.948;2023-08-08T06:50:52;100910.66;;;23.27;57.09
45285;BME280;31026;43.780;25.948;2023-08-08T06:53:23;100897.47;;;23.50;56.85
45285;BME280;31026;43.780;25.948;2023-08-08T06:55:52;100901.47;;;23.46;56.92
45285;BME280;31026;43.780;25.948;2023-08-08T06:58:20;100910.09;;;23.49;56.64
45285;BME280;31026;43.780;25.948;2023-08-08T07:00:48;100910.50;;;23.62;56.85
45285;BME280;31026;43.780;25.948;2023-08-08T07:03:18;100921.78;;;23.58;56.77
45285;BME280;31026;43.780;25.948;2023-08-08T07:05:46;100916.69;;;23.55;56.83
45285;BME280;31026;43.780;25.948;2023-08-08T07:08:17;100885.13;;;23.47;57.13
45285;BME280;31026;43.780;25.948;2023-08-08T07:10:47;100892.69;;;23.43;56.82
45285;BME280;31026;43.780;25.948;2023-08-08T07:13:16;100889.69;;;23.47;57.17
45285;BME280;31026;43.780;25.948;2023-08-08T07:15:44;100888.69;;;23.48;57.13
45285;BME280;31026;43.780;25.948;2023-08-08T07:18:12;100881.63;;;23.63;56.78
45285;BME280;31026;43.780;25.948;2023-08-08T07:20:41;100879.19;;;23.78;56.56
45285;BME280;31026;43.780;25.948;2023-08-08T07:23:09;100897.53;;;23.66;56.79
45285;BME280;31026;43.780;25.948;2023-08-08T07:25:37;100898.22;;;23.76;56.77
45285;BME280;31026;43.780;25.948;2023-08-08T07:28:08;100917.25;;;23.67;56.85
45285;BME280;31026;43.780;25.948;2023-08-08T07:30:37;100912.19;;;23.63;56.81
45285;BME280;31026;43.780;25.948;2023-08-08T07:33:05;100925.00;;;23.61;57.22
45285;BME280;31026;43.780;25.948;2023-08-08T07:35:33;100928.94;;;23.75;57.09
45285;BME280;31026;43.780;25.948;2023-08-08T07:38:02;100916.81;;;23.79;56.82
45285;BME280;31026;43.780;25.948;2023-08-08T07:40:30;100910.72;;;23.77;57.03
45285;BME280;31026;43.780;25.948;2023-08-08T07:42:59;100916.75;;;23.71;57.05
45285;BME280;31026;43.780;25.948;2023-08-08T07:45:30;100928.25;;;23.73;57.51
45285;BME280;31026;43.780;25.948;2023-08-08T07:47:58;100909.59;;;23.80;57.18
45285;BME280;31026;43.780;25.948;2023-08-08T07:50:26;100906.00;;;23.79;57.72
45285;BME280;31026;43.780;25.948;2023-08-08T07:52:54;100918.69;;;23.79;57.54
45285;BME280;31026;43.780;25.948;2023-08-08T07:55:23;100917.84;;;23.78;57.49
45285;BME280;31026;43.780;25.948;2023-08-08T07:57:51;100911.34;;;23.71;57.61
45285;BME280;31026;43.780;25.948;2023-08-08T08:00:19;100911.34;;;23.71;57.01
45285;BME280;31026;43.780;25.948;2023-08-08T08:02:51;100913.38;;;23.69;57.08
45285;BME280;31026;43.780;25.948;2023-08-08T08:05:19;100923.25;;;23.78;57.27
45285;BME280;31026;43.780;25.948;2023-08-08T08:07:47;100918.47;;;23.72;57.10
45285;BME280;31026;43.780;25.948;2023-08-08T08:10:16;100923.63;;;23.92;56.75
45285;BME280;31026;43.780;25.948;2023-08-08T08:12:44;100921.94;;;23.91;57.21
45285;BME280;31026;43.780;25.948;2023-08-08T08:15:12;100910.28;;;23.90;57.28
45285;BME280;31026;43.780;25.948;2023-08-08T08:17:41;100905.38;;;23.86;57.11
45285;BME280;31026;43.780;25.948;2023-08-08T08:20:12;100917.03;;;23.52;57.86
45285;BME280;31026;43.780;25.948;2023-08-08T08:22:40;100890.47;;;23.39;57.53
45285;BME280;31026;43.780;25.948;2023-08-08T08:25:08;100897.72;;;23.30;58.05
45285;BME280;31026;43.780;25.948;2023-08-08T08:27:37;100887.19;;;23.19;58.03
45285;BME280;31026;43.780;25.948;2023-08-08T08:30:06;100891.09;;;23.25;57.56
45285;BME280;31026;43.780;25.948;2023-08-08T08:32:35;100900.75;;;23.35;57.55
45285;BME280;31026;43.780;25.948;2023-08-08T08:35:04;100913.78;;;23.40;58.41
45285;BME280;31026;43.780;25.948;2023-08-08T08:37:35;100898.31;;;23.50;58.48
45285;BME280;31026;43.780;25.948;2023-08-08T08:40:04;100896.94;;;23.46;59.36
45285;BME280;31026;43.780;25.948;2023-08-08T08:42:32;100926.13;;;23.51;58.92
45285;BME280;31026;43.780;25.948;2023-08-08T08:45:02;100889.72;;;23.55;58.88
45285;BME280;31026;43.780;25.948;2023-08-08T08:47:31;100886.00;;;23.56;58.20
45285;BME280;31026;43.780;25.948;2023-08-08T08:50:01;100903.91;;;23.65;57.62
45285;BME280;31026;43.780;25.948;2023-08-08T08:52:30;100909.47;;;24.06;57.12
45285;BME280;31026;43.780;25.948;2023-08-08T08:55:01;100894.31;;;24.38;56.97
45285;BME280;31026;43.780;25.948;2023-08-08T08:57:29;100909.22;;;24.58;56.47
45285;BME280;31026;43.780;25.948;2023-08-08T08:59:58;100879.00;;;24.63;57.48
45285;BME280;31026;43.780;25.948;2023-08-08T09:02:26;100880.81;;;24.71;57.11
45285;BME280;31026;43.780;25.948;2023-08-08T09:04:54;100897.22;;;24.77;56.93
45285;BME280;31026;43.780;25.948;2023-08-08T09:07:23;100883.84;;;24.92;56.77
45285;BME280;31026;43.780;25.948;2023-08-08T09:09:54;100913.09;;;25.05;56.29
45285;BME280;31026;43.780;25.948;2023-08-08T09:12:24;100887.06;;;24.88;57.42
45285;BME280;31026;43.780;25.948;2023-08-08T09:14:54;100880.41;;;25.07;57.34
45285;BME280;31026;43.780;25.948;2023-08-08T09:17:24;100878.38;;;25.17;57.26
45285;BME280;31026;43.780;25.948;2023-08-08T09:19:52;100874.50;;;25.11;57.43
45285;BME280;31026;43.780;25.948;2023-08-08T09:22:21;100878.75;;;25.06;58.27
45285;BME280;31026;43.780;25.948;2023-08-08T09:24:49;100873.34;;;25.06;57.72
45285;BME280;31026;43.780;25.948;2023-08-08T09:27:17;100876.34;;;25.19;57.12
45285;BME280;31026;43.780;25.948;2023-08-08T09:29:48;100876.16;;;25.20;57.60
45285;BME280;31026;43.780;25.948;2023-08-08T09:32:17;100869.59;;;25.23;57.22
45285;BME280;31026;43.780;25.948;2023-08-08T09:34:45;100873.13;;;25.15;57.54
45285;BME280;31026;43.780;25.948;2023-08-08T09:37:14;100881.75;;;25.27;57.77
45285;BME280;31026;43.780;25.948;2023-08-08T09:39:42;100875.00;;;25.23;57.65
45285;BME280;31026;43.780;25.948;2023-08-08T09:42:10;100872.03;;;24.69;55.74
45285;BME280;31026;43.780;25.948;2023-08-08T09:44:39;100878.78;;;24.89;55.67
45285;BME280;31026;43.780;25.948;2023-08-08T09:47:11;100887.06;;;24.88;56.00
45285;BME280;31026;43.780;25.948;2023-08-08T09:49:40;100862.91;;;24.78;55.53
45285;BME280;31026;43.780;25.948;2023-08-08T09:52:08;100863.91;;;24.69;54.65
45285;BME280;31026;43.780;25.948;2023-08-08T09:54:38;100873.59;;;24.63;55.01
45285;BME280;31026;43.780;25.948;2023-08-08T09:57:07;100898.38;;;24.75;55.02
45285;BME280;31026;43.780;25.948;2023-08-08T09:59:35;100873.41;;;24.81;55.31
45285;BME280;31026;43.780;25.948;2023-08-08T10:02:04;100880.13;;;24.77;54.35
45285;BME280;31026;43.780;25.948;2023-08-08T10:04:35;100881.84;;;24.70;54.84
45285;BME280;31026;43.780;25.948;2023-08-08T10:07:04;100872.53;;;24.72;54.97
45285;BME280;31026;43.780;25.948;2023-08-08T10:09:32;100883.88;;;24.68;55.10
45285;BME280;31026;43.780;25.948;2023-08-08T10:12:02;100880.34;;;24.67;55.04
45285;BME280;31026;43.780;25.948;2023-08-08T10:14:31;100886.59;;;24.68;55.01
45285;BME280;31026;43.780;25.948;2023-08-08T10:17:02;100878.81;;;24.65;53.93
45285;BME280;31026;43.780;25.948;2023-08-08T10:19:30;100862.56;;;24.73;54.41
45285;BME280;31026;43.780;25.948;2023-08-08T10:22:02;100870.53;;;24.66;54.03
45285;BME280;31026;43.780;25.948;2023-08-08T10:24:32;100867.16;;;24.64;52.95
45285;BME280;31026;43.780;25.948;2023-08-08T10:27:01;100876.59;;;24.76;52.25
45285;BME280;31026;43.780;25.948;2023-08-08T10:29:31;100864.59;;;24.71;53.30
45285;BME280;31026;43.780;25.948;2023-08-08T10:32:01;100853.97;;;24.77;52.22
45285;BME280;31026;43.780;25.948;2023-08-08T10:34:39;100866.31;;;24.72;54.45
45285;BME280;31026;43.780;25.948;2023-08-08T10:37:11;100866.59;;;24.77;53.82
45285;BME280;31026;43.780;25.948;2023-08-08T10:39:50;100852.41;;;24.75;53.88
45285;BME280;31026;43.780;25.948;2023-08-08T10:42:18;100882.53;;;24.72;53.54
45285;BME280;31026;43.780;25.948;2023-08-08T10:44:50;100863.22;;;24.75;53.92
45285;BME280;31026;43.780;25.948;2023-08-08T10:47:21;100859.53;;;24.68;53.69
45285;BME280;31026;43.780;25.948;2023-08-08T10:49:56;100848.03;;;24.74;53.41
45285;BME280;31026;43.780;25.948;2023-08-08T10:52:27;100864.09;;;24.75;52.53
45285;BME280;31026;43.780;25.948;2023-08-08T10:54:55;100837.91;;;24.76;52.86
45285;BME280;31026;43.780;25.948;2023-08-08T10:57:24;100856.50;;;24.79;53.25
45285;BME280;31026;43.780;25.948;2023-08-08T10:59:52;100850.59;;;24.75;52.54
45285;BME280;31026;43.780;25.948;2023-08-08T11:02:21;100843.97;;;24.78;53.24
45285;BME280;31026;43.780;25.948;2023-08-08T11:04:50;100836.19;;;24.83;52.94
45285;BME280;31026;43.780;25.948;2023-08-08T11:07:18;100841.09;;;24.88;53.29
45285;BME280;31026;43.780;25.948;2023-08-08T11:09:49;100843.28;;;24.84;53.07
45285;BME280;31026;43.780;25.948;2023-08-08T11:12:17;100841.94;;;24.80;53.83
45285;BME280;31026;43.780;25.948;2023-08-08T11:14:46;100845.31;;;24.82;53.74
45285;BME280;31026;43.780;25.948;2023-08-08T11:17:14;100840.56;;;24.84;51.98
45285;BME280;31026;43.780;25.948;2023-08-08T11:19:42;100838.88;;;24.91;52.13
45285;BME280;31026;43.780;25.948;2023-08-08T11:22:11;100865.56;;;24.94;52.50
45285;BME280;31026;43.780;25.948;2023-08-08T11:24:39;100846.59;;;25.02;51.37
45285;BME280;31026;43.780;25.948;2023-08-08T11:27:10;100844.97;;;24.93;50.81
45285;BME280;31026;43.780;25.948;2023-08-08T11:29:40;100843.59;;;24.97;51.13
45285;BME280;31026;43.780;25.948;2023-08-08T11:32:08;100833.91;;;25.11;50.75
45285;BME280;31026;43.780;25.948;2023-08-08T11:34:36;100835.16;;;24.92;51.46
45285;BME280;31026;43.780;25.948;2023-08-08T11:37:06;100850.72;;;24.90;51.71
45285;BME280;31026;43.780;25.948;2023-08-08T11:39:35;100842.09;;;24.95;50.38
45285;BME280;31026;43.780;25.948;2023-08-08T11:42:04;100837.34;;;24.97;50.42
45285;BME280;31026;43.780;25.948;2023-08-08T11:44:36;100848.63;;;25.09;49.99
45285;BME280;31026;43.780;25.948;2023-08-08T11:47:04;100837.81;;;25.00;50.11
45285;BME280;31026;43.780;25.948;2023-08-08T11:49:39;100830.91;;;24.98;49.88
45285;BME280;31026;43.780;25.948;2023-08-08T11:52:07;100840.03;;;25.05;47.63
45285;BME280;31026;43.780;25.948;2023-08-08T11:54:49;100841.53;;;25.08;46.57
45285;BME280;31026;43.780;25.948;2023-08-08T11:57:18;100848.66;;;25.00;48.50
45285;BME280;31026;43.780;25.948;2023-08-08T11:59:50;100817.75;;;24.95;50.27
45285;BME280;31026;43.780;25.948;2023-08-08T12:02:20;100824.28;;;25.00;50.88
45285;BME280;31026;43.780;25.948;2023-08-08T12:04:50;100830.75;;;24.99;51.12
45285;BME280;31026;43.780;25.948;2023-08-08T12:07:18;100834.44;;;24.98;50.41
45285;BME280;31026;43.780;25.948;2023-08-08T12:09:47;100811.97;;;24.98;50.78
45285;BME280;31026;43.780;25.948;2023-08-08T12:12:19;100819.09;;;24.99;50.88
45285;BME280;31026;43.780;25.948;2023-08-08T12:14:50;100808.44;;;24.97;51.36
45285;BME280;31026;43.780;25.948;2023-08-08T12:17:18;100815.84;;;25.04;51.01
45285;BME280;31026;43.780;25.948;2023-08-08T12:19:47;100819.56;;;25.02;51.46
45285;BME280;31026;43.780;25.948;2023-08-08T12:22:15;100817.34;;;25.06;51.56
45285;BME280;31026;43.780;25.948;2023-08-08T12:24:43;100826.13;;;25.08;51.81
45285;BME280;31026;43.780;25.948;2023-08-08T12:27:12;100820.56;;;25.10;52.07
45285;BME280;31026;43.780;25.948;2023-08-08T12:29:41;100799.59;;;25.04;52.01
45285;BME280;31026;43.780;25.948;2023-08-08T12:32:12;100799.44;;;25.05;51.92
45285;BME280;31026;43.780;25.948;2023-08-08T12:34:40;100802.16;;;25.05;52.17
45285;BME280;31026;43.780;25.948;2023-08-08T12:37:08;100798.06;;;25.09;52.39
45285;BME280;31026;43.780;25.948;2023-08-08T12:39:37;100793.84;;;25.07;52.60
45285;BME280;31026;43.780;25.948;2023-08-08T12:42:05;100797.56;;;25.06;52.40
45285;BME280;31026;43.780;25.948;2023-08-08T12:44:34;100807.19;;;25.08;52.42
45285;BME280;31026;43.780;25.948;2023-08-08T12:47:02;100795.03;;;25.04;52.21
45285;BME280;31026;43.780;25.948;2023-08-08T12:49:33;100787.75;;;25.05;52.22